Gil Vicente — CSKG — position and weather

sailwx.info

Track history (hours):
 
Tides and Currents Weather Stations Pressure Air Temp Water Temp Dewpoint Dewpoint Depression Visibility Wind Speed Wind Dir Waves Ship Positions

Gil Vicente

Last reported at 2015-Apr-30 18:33 UTC. Time now 2015-May-03 17:55 UTC.
Position N 38°42' W 009°08'.

Length 49 m.

Type: Passenger vessel. MMSI: 263701390.

Date/timePositionNaut miles runAvg speedWind from/ knotsBaromVisibWave heightAir tempDewpointWater temp
2015-Apr-30 18:33N 38°42' W 009°08'0 0.2
2015-Apr-30 17:33N 38°42' W 009°08'2 2.2
2015-Apr-30 16:34N 38°40' W 009°07'2 2.1
2015-Apr-30 15:33N 38°39' W 009°05'1 0.9
2015-Apr-30 14:33N 38°40' W 009°06'1 1.1
2015-Apr-30 13:33N 38°39' W 009°05'0 0.0
2015-Apr-30 10:23N 38°39' W 009°05'0 0.0
2015-Apr-30 09:33N 38°39' W 009°05'1 1.3
2015-Apr-30 08:33N 38°40' W 009°06'1 0.7
2015-Apr-30 07:33N 38°40' W 009°07'2 2.0
2015-Apr-30 06:34N 38°39' W 009°05'0 0.0
2015-Apr-30 05:34N 38°39' W 009°05'0 0.0
2015-Apr-29 23:05N 38°39' W 009°05'4 7.7
2015-Apr-29 22:33N 38°42' W 009°08'1 1.0
2015-Apr-29 21:33N 38°41' W 009°08'0 0.3
2015-Apr-29 20:33N 38°41' W 009°08'3 2.8
2015-Apr-29 19:33N 38°39' W 009°05'0 0.5
2015-Apr-29 18:34N 38°39' W 009°05'1 0.5
2015-Apr-29 17:33N 38°39' W 009°05'1 1.4
2015-Apr-29 16:33N 38°40' W 009°06'1 1.3
2015-Apr-29 15:33N 38°39' W 009°05'0 0.0
2015-Apr-29 09:14N 38°39' W 009°05'4 5.9
2015-Apr-29 08:33N 38°42' W 009°08'0 0.0
2015-Apr-29 07:34N 38°42' W 009°08'2 2.4
2015-Apr-29 06:33N 38°40' W 009°07'2 1.9
2015-Apr-29 05:33N 38°39' W 009°05'4 0.4
2015-Apr-28 18:34N 38°42' W 009°08'0 0.2
2015-Apr-28 17:33N 38°42' W 009°08'3 2.6
2015-Apr-28 16:34N 38°40' W 009°07'1 1.3
2015-Apr-28 15:33N 38°39' W 009°06'1 0.6
2015-Apr-28 14:33N 38°40' W 009°06'1 0.2
2015-Apr-28 09:24N 38°39' W 009°05'1 1.5
2015-Apr-28 08:34N 38°40' W 009°06'1 0.9
2015-Apr-28 07:34N 38°40' W 009°07'2 2.1
2015-Apr-28 06:33N 38°39' W 009°05'0 0.0
2015-Apr-28 05:34N 38°39' W 009°05'0 0.0
2015-Apr-28 04:33N 38°39' W 009°05'4 0.7
2015-Apr-27 22:33N 38°42' W 009°08'1 1.2
2015-Apr-27 21:33N 38°41' W 009°08'0 0.1
2015-Apr-27 20:33N 38°41' W 009°08'3 2.8
2015-Apr-27 19:33N 38°39' W 009°05'0 0.4
2015-Apr-27 18:34N 38°39' W 009°05'0 0.4
2015-Apr-27 17:33N 38°39' W 009°05'1 1.3
2015-Apr-27 16:34N 38°40' W 009°06'1 1.1
2015-Apr-27 15:34N 38°39' W 009°05'0 0.0
2015-Apr-27 08:34N 38°39' W 009°05'0 0.2
2015-Apr-27 07:33N 38°39' W 009°05'0 0.3
2015-Apr-27 06:33N 38°39' W 009°05'0 0.0
2015-Apr-27 05:33N 38°39' W 009°05'3 0.1
2015-Apr-25 20:34N 38°41' W 009°08'3 2.9
2015-Apr-25 19:33N 38°39' W 009°05'2 1.9
2015-Apr-25 18:33N 38°40' W 009°07'1 0.6
2015-Apr-25 17:33N 38°40' W 009°06'0 0.1
2015-Apr-25 16:34N 38°40' W 009°06'0 0.0
2015-Apr-25 15:34N 38°40' W 009°06'0 0.3
2015-Apr-25 14:33N 38°40' W 009°06'0 0.3
2015-Apr-25 13:34N 38°39' W 009°06'1 0.6
2015-Apr-25 12:34N 38°40' W 009°06'1 1.4
2015-Apr-25 11:33N 38°39' W 009°05'0 0.0
2015-Apr-25 06:33N 38°39' W 009°05'0 0.4
2015-Apr-25 05:33N 38°39' W 009°05'0 0.4
2015-Apr-25 04:33N 38°39' W 009°05'4 0.7
2015-Apr-24 22:33N 38°42' W 009°08'1 1.4
2015-Apr-24 21:34N 38°41' W 009°08'0 0.2
2015-Apr-24 20:33N 38°41' W 009°08'3 3.0
2015-Apr-24 19:33N 38°39' W 009°05'1 0.6
2015-Apr-24 18:33N 38°39' W 009°06'1 0.6
2015-Apr-24 17:33N 38°39' W 009°05'1 1.1
2015-Apr-24 16:33N 38°40' W 009°06'1 1.0
2015-Apr-24 15:32N 38°39' W 009°05'0 0.0
2015-Apr-24 08:33N 38°39' W 009°05'0 0.4
2015-Apr-24 07:34N 38°39' W 009°05'1 0.5
2015-Apr-24 06:33N 38°39' W 009°05'0 0.1
2015-Apr-24 05:33N 38°39' W 009°05'4 0.4
2015-Apr-23 18:33N 38°42' W 009°08'0 0.3
2015-Apr-23 17:33N 38°42' W 009°08'2 2.4
2015-Apr-23 16:33N 38°40' W 009°07'2 1.9
2015-Apr-23 15:33N 38°39' W 009°05'1 1.3
2015-Apr-23 14:33N 38°40' W 009°06'1 1.3
2015-Apr-23 13:33N 38°39' W 009°05'0 0.0
2015-Apr-23 12:33N 38°39' W 009°05'0 0.0
2015-Apr-23 11:33N 38°39' W 009°05'0 0.0
2015-Apr-23 10:33N 38°39' W 009°05'0 0.0
2015-Apr-23 09:33N 38°39' W 009°05'1 1.4
2015-Apr-23 08:33N 38°40' W 009°06'1 1.0
2015-Apr-23 07:34N 38°40' W 009°07'2 2.4
2015-Apr-23 06:33N 38°39' W 009°05'0 0.0
2015-Apr-23 05:33N 38°39' W 009°05'0 0.0
2015-Apr-23 04:33N 38°39' W 009°05'4 0.7
2015-Apr-22 22:33N 38°42' W 009°08'2 1.6
2015-Apr-22 21:33N 38°41' W 009°08'0 0.5
2015-Apr-22 20:33N 38°41' W 009°08'3 3.2
2015-Apr-22 19:33N 38°39' W 009°05'0 0.5
2015-Apr-22 18:34N 38°39' W 009°05'0 0.5
2015-Apr-22 17:33N 38°39' W 009°05'1 1.1
2015-Apr-22 16:33N 38°40' W 009°06'1 1.0
2015-Apr-22 15:33N 38°39' W 009°05'0 0.0
2015-Apr-22 08:33N 38°39' W 009°05'0 0.2
2015-Apr-22 07:33N 38°39' W 009°05'0 0.3
2015-Apr-22 06:33N 38°39' W 009°05'0 0.1
2015-Apr-22 05:33N 38°39' W 009°05'0 0.0
2015-Apr-21 20:33N 38°39' W 009°05'0 0.0
2015-Apr-21 19:34N 38°39' W 009°05'4 3.8
2015-Apr-21 18:34N 38°42' W 009°08'2 2.2
2015-Apr-21 17:33N 38°40' W 009°07'2 1.9
2015-Apr-21 16:33N 38°39' W 009°05'0 0.0
2015-Apr-21 15:33N 38°39' W 009°05'0 0.2
2015-Apr-21 14:33N 38°39' W 009°05'0 0.0
2015-Apr-21 10:24N 38°39' W 009°05'1 1.5
2015-Apr-21 09:34N 38°40' W 009°06'1 0.8
2015-Apr-21 08:34N 38°39' W 009°06'3 3.2
2015-Apr-21 07:33N 38°42' W 009°08'0 0.5
2015-Apr-21 06:34N 38°42' W 009°08'4 0.4
2015-Apr-20 20:23N 38°39' W 009°05'3 3.8
2015-Apr-20 19:33N 38°41' W 009°08'2 1.7
2015-Apr-20 18:34N 38°40' W 009°07'  
Track history (hours):
 
Tides and Currents Weather Stations Pressure Air Temp Water Temp Dewpoint Dewpoint Depression Visibility Wind Speed Wind Dir Waves Ship Positions

Gil Vicente

Last reported at 2015-Apr-30 18:33 UTC. Time now 2015-May-03 17:55 UTC.
Position N 38°42' W 009°08'.

Length 49 m.

Type: Passenger vessel. MMSI: 263701390.

Date/timePositionNaut miles runAvg speedWind from/ knotsBaromVisibWave heightAir tempDewpointWater temp
2015-Apr-30 18:33N 38°42' W 009°08'0 0.2
2015-Apr-30 17:33N 38°42' W 009°08'2 2.2
2015-Apr-30 16:34N 38°40' W 009°07'2 2.1
2015-Apr-30 15:33N 38°39' W 009°05'1 0.9
2015-Apr-30 14:33N 38°40' W 009°06'1 1.1
2015-Apr-30 13:33N 38°39' W 009°05'0 0.0
2015-Apr-30 10:23N 38°39' W 009°05'0 0.0
2015-Apr-30 09:33N 38°39' W 009°05'1 1.3
2015-Apr-30 08:33N 38°40' W 009°06'1 0.7
2015-Apr-30 07:33N 38°40' W 009°07'2 2.0
2015-Apr-30 06:34N 38°39' W 009°05'0 0.0
2015-Apr-30 05:34N 38°39' W 009°05'0 0.0
2015-Apr-29 23:05N 38°39' W 009°05'4 7.7
2015-Apr-29 22:33N 38°42' W 009°08'1 1.0
2015-Apr-29 21:33N 38°41' W 009°08'0 0.3
2015-Apr-29 20:33N 38°41' W 009°08'3 2.8
2015-Apr-29 19:33N 38°39' W 009°05'0 0.5
2015-Apr-29 18:34N 38°39' W 009°05'1 0.5
2015-Apr-29 17:33N 38°39' W 009°05'1 1.4
2015-Apr-29 16:33N 38°40' W 009°06'1 1.3
2015-Apr-29 15:33N 38°39' W 009°05'0 0.0
2015-Apr-29 09:14N 38°39' W 009°05'4 5.9
2015-Apr-29 08:33N 38°42' W 009°08'0 0.0
2015-Apr-29 07:34N 38°42' W 009°08'2 2.4
2015-Apr-29 06:33N 38°40' W 009°07'2 1.9
2015-Apr-29 05:33N 38°39' W 009°05'4 0.4
2015-Apr-28 18:34N 38°42' W 009°08'0 0.2
2015-Apr-28 17:33N 38°42' W 009°08'3 2.6
2015-Apr-28 16:34N 38°40' W 009°07'1 1.3
2015-Apr-28 15:33N 38°39' W 009°06'1 0.6
2015-Apr-28 14:33N 38°40' W 009°06'1 0.2
2015-Apr-28 09:24N 38°39' W 009°05'1 1.5
2015-Apr-28 08:34N 38°40' W 009°06'1 0.9
2015-Apr-28 07:34N 38°40' W 009°07'2 2.1
2015-Apr-28 06:33N 38°39' W 009°05'0 0.0
2015-Apr-28 05:34N 38°39' W 009°05'0 0.0
2015-Apr-28 04:33N 38°39' W 009°05'4 0.7
2015-Apr-27 22:33N 38°42' W 009°08'1 1.2
2015-Apr-27 21:33N 38°41' W 009°08'0 0.1
2015-Apr-27 20:33N 38°41' W 009°08'3 2.8
2015-Apr-27 19:33N 38°39' W 009°05'0 0.4
2015-Apr-27 18:34N 38°39' W 009°05'0 0.4
2015-Apr-27 17:33N 38°39' W 009°05'1 1.3
2015-Apr-27 16:34N 38°40' W 009°06'1 1.1
2015-Apr-27 15:34N 38°39' W 009°05'0 0.0
2015-Apr-27 08:34N 38°39' W 009°05'0 0.2
2015-Apr-27 07:33N 38°39' W 009°05'0 0.3
2015-Apr-27 06:33N 38°39' W 009°05'0 0.0
2015-Apr-27 05:33N 38°39' W 009°05'3 0.1
2015-Apr-25 20:34N 38°41' W 009°08'3 2.9
2015-Apr-25 19:33N 38°39' W 009°05'2 1.9
2015-Apr-25 18:33N 38°40' W 009°07'1 0.6
2015-Apr-25 17:33N 38°40' W 009°06'0 0.1
2015-Apr-25 16:34N 38°40' W 009°06'0 0.0
2015-Apr-25 15:34N 38°40' W 009°06'0 0.3
2015-Apr-25 14:33N 38°40' W 009°06'0 0.3
2015-Apr-25 13:34N 38°39' W 009°06'1 0.6
2015-Apr-25 12:34N 38°40' W 009°06'1 1.4
2015-Apr-25 11:33N 38°39' W 009°05'0 0.0
2015-Apr-25 06:33N 38°39' W 009°05'0 0.4
2015-Apr-25 05:33N 38°39' W 009°05'0 0.4
2015-Apr-25 04:33N 38°39' W 009°05'4 0.7
2015-Apr-24 22:33N 38°42' W 009°08'1 1.4
2015-Apr-24 21:34N 38°41' W 009°08'0 0.2
2015-Apr-24 20:33N 38°41' W 009°08'3 3.0
2015-Apr-24 19:33N 38°39' W 009°05'1 0.6
2015-Apr-24 18:33N 38°39' W 009°06'1 0.6
2015-Apr-24 17:33N 38°39' W 009°05'1 1.1
2015-Apr-24 16:33N 38°40' W 009°06'1 1.0
2015-Apr-24 15:32N 38°39' W 009°05'0 0.0
2015-Apr-24 08:33N 38°39' W 009°05'0 0.4
2015-Apr-24 07:34N 38°39' W 009°05'1 0.5
2015-Apr-24 06:33N 38°39' W 009°05'0 0.1
2015-Apr-24 05:33N 38°39' W 009°05'4 0.4
2015-Apr-23 18:33N 38°42' W 009°08'0 0.3
2015-Apr-23 17:33N 38°42' W 009°08'2 2.4
2015-Apr-23 16:33N 38°40' W 009°07'2 1.9
2015-Apr-23 15:33N 38°39' W 009°05'1 1.3
2015-Apr-23 14:33N 38°40' W 009°06'1 1.3
2015-Apr-23 13:33N 38°39' W 009°05'0 0.0
2015-Apr-23 12:33N 38°39' W 009°05'0 0.0
2015-Apr-23 11:33N 38°39' W 009°05'0 0.0
2015-Apr-23 10:33N 38°39' W 009°05'0 0.0
2015-Apr-23 09:33N 38°39' W 009°05'1 1.4
2015-Apr-23 08:33N 38°40' W 009°06'1 1.0
2015-Apr-23 07:34N 38°40' W 009°07'2 2.4
2015-Apr-23 06:33N 38°39' W 009°05'0 0.0
2015-Apr-23 05:33N 38°39' W 009°05'0 0.0
2015-Apr-23 04:33N 38°39' W 009°05'4 0.7
2015-Apr-22 22:33N 38°42' W 009°08'2 1.6
2015-Apr-22 21:33N 38°41' W 009°08'0 0.5
2015-Apr-22 20:33N 38°41' W 009°08'3 3.2
2015-Apr-22 19:33N 38°39' W 009°05'0 0.5
2015-Apr-22 18:34N 38°39' W 009°05'0 0.5
2015-Apr-22 17:33N 38°39' W 009°05'1 1.1
2015-Apr-22 16:33N 38°40' W 009°06'1 1.0
2015-Apr-22 15:33N 38°39' W 009°05'0 0.0
2015-Apr-22 08:33N 38°39' W 009°05'0 0.2
2015-Apr-22 07:33N 38°39' W 009°05'0 0.3
2015-Apr-22 06:33N 38°39' W 009°05'0 0.1
2015-Apr-22 05:33N 38°39' W 009°05'0 0.0
2015-Apr-21 20:33N 38°39' W 009°05'0 0.0
2015-Apr-21 19:34N 38°39' W 009°05'4 3.8
2015-Apr-21 18:34N 38°42' W 009°08'2 2.2
2015-Apr-21 17:33N 38°40' W 009°07'2 1.9
2015-Apr-21 16:33N 38°39' W 009°05'0 0.0
2015-Apr-21 15:33N 38°39' W 009°05'0 0.2
2015-Apr-21 14:33N 38°39' W 009°05'0 0.0
2015-Apr-21 10:24N 38°39' W 009°05'1 1.5
2015-Apr-21 09:34N 38°40' W 009°06'1 0.8
2015-Apr-21 08:34N 38°39' W 009°06'3 3.2
2015-Apr-21 07:33N 38°42' W 009°08'0 0.5
2015-Apr-21 06:34N 38°42' W 009°08'4 0.4
2015-Apr-20 20:23N 38°39' W 009°05'3 3.8
2015-Apr-20 19:33N 38°41' W 009°08'2 1.7
2015-Apr-20 18:34N 38°40' W 009°07'  

Dump ship's entire track history